Terminal Aerodrome Forecast
Issued by NWS

Home | Current Version | Previous Version | Text Only | Print | Product List | Glossary On
Versions: 1 2 3 4 5 6 7 8 9 10 11 12 13 14 15 16 17 18 19 20 21
000
FTUS43 KIND 282000 AAB
TAFLAF
TAF AMD
KLAF 282018Z 2820/2918 15011G16KT P6SM BKN120
     FM291500 20014KT P6SM BKN030=

USA.gov is the U.S. government's official web portal to all federal, state and local government web resources and services.